Finlayson, Minnesota
Current Conditions -  °F | °C
As of 9:06 PM on Wednesday 26 Nov 2014 (Local Time) from K04W Reporting Station
Overcast Overcast  
Wind Chill:   Ceiling: 9000
Heat Index: 12°   Visibility: 10mi
Dew Point:   Wind: 9mph
Humidity: 62%   Direction: 340°NNW
Pressure: 30.35"   Gusts: NA
Location:  46.2°N, 92.92°W
Report Text: K04W 270306Z AUTO 34008KT 10SM OVC090 M11/M17 A3035 RMK AO2
Loading
Personal Weather Stations






























Interactive Weather Map New forecast layout! Learn more

10-Day Weather Forecast

Advertisements
Track Severe Weather on mobile